x

Cedar Key, Fl (cdrf1) Weather Station

8:00pm - Mon 11th Dec 2017 All times are EST. -5 hours from GMT.

  • Wind
    3mph, 5mph gusts
  • Air Temp 56°f
  • Sea Pressure 1021.8mb
  • Cedar Key, Fl
  • Cedar Key, Fl

More Historic Weather Station data

Upgrade to MSW Pro to gain access to the past 30 days of data for over 8000 Wavebouys and Weather Stations around the globe.

Join

Comparision Forecast

View Surf forecast
   
Mon 12/11 8:00pm 3 5 mph 1021.8mb 56f
7:00pm 2 2 mph 1022.2mb 55f
6:00pm 3 5 mph 1022.4mb 54f
5:00pm 5 6 mph 1022.5mb 55f
4:00pm 5 6 mph 1022.4mb 56f
3:00pm 5 7 mph 1023mb 55f
2:00pm 5 8 mph 1023.5mb 55f
1:00pm 7 8 mph 1024mb 54f
12:00pm 6 7 mph 1025.2mb 54f
11:00am 3 7 mph 1026.3mb 53f
10:00am 2 5 mph 1026.9mb 51f
9:00am 3 6 mph 1027.1mb 48f
8:00am 3 3 mph 1026.8mb 45f
7:00am 3 3 mph 1026.5mb 43f
6:00am 5 6 mph 1026.3mb 42f
5:00am 3 5 mph 1026.2mb 41f
4:00am 5 6 mph 1026.5mb 43f
3:00am 3 5 mph 1026.3mb 44f
2:00am 5 7 mph 1026.4mb 45f
1:00am 5 6 mph 1026.6mb 46f
12:00am 3 3 mph 1026.4mb 46f
Sun 12/10 11:00pm 2 3 mph 1027mb 46f
10:00pm 2 3 mph 1026.9mb 47f
9:00pm 3 5 mph 1026.8mb 47f
8:00pm 2 3 mph 1026.5mb 50f
7:00pm 5 6 mph 1026.5mb 50f
6:00pm 5 7 mph 1026mb 49f
5:00pm 7 10 mph 1025.8mb 51f
4:00pm 10 14 mph 1025.8mb 51f
3:00pm 10 15 mph 1025.8mb 51f
2:00pm 9 11 mph 1026.2mb 49f
1:00pm 8 11 mph 1026.6mb 48f
12:00pm 6 8 mph 1027.4mb 49f
11:00am 6 9 mph 1027.7mb 48f
10:00am 6 8 mph 1028.3mb 45f
9:00am 6 8 mph 1028mb 42f
8:00am 7 11 mph 1027.2mb 41f
7:00am 7 9 mph 1026.5mb 40f
6:00am 7 10 mph 1025.8mb 40f
5:00am 8 10 mph 1025.2mb 41f
4:00am 7 10 mph 1025.3mb 41f
3:00am 7 8 mph 1025mb 41f
2:00am 9 11 mph 1024.2mb 41f
1:00am 7 11 mph 1024.3mb 41f
12:00am 8 10 mph 1023.6mb 42f
Sat 12/09 11:00pm 5 6 mph 1023.6mb 43f
10:00pm 3 5 mph 1022.7mb 43f
9:00pm 7 9 mph 1022.1mb 45f
8:00pm 9 13 mph 1021.1mb 46f
7:00pm 13 20 mph 1020mb 50f
6:00pm 14 18 mph 1018.8mb 50f
5:00pm 10 15 mph 1018.1mb 50f
4:00pm 15 20 mph 1017mb 50f
3:00pm 13 20 mph 1016.9mb 50f
2:00pm 16 23 mph 1016.9mb 51f
1:00pm 16 26 mph 1017.1mb 51f
12:00pm 15 23 mph 1017.5mb 51f
11:00am 15 22 mph 1017.2mb 51f
10:00am 8 10 mph 1016.5mb 50f
9:00am 9 13 mph 1015.6mb 51f
8:00am 6 9 mph 1014.3mb 48f
7:00am 8 11 mph 1013.9mb 48f
6:00am 10 16 mph 1013.8mb 48f
5:00am 11 17 mph 1013.3mb 48f
4:00am 14 18 mph 1012mb 48f
3:00am 9 13 mph 1012.3mb 48f
2:00am 3 6 mph 1010.9mb 47f
1:00am 3 6 mph 1010.8mb 47f
12:00am 8 11 mph 1010mb 47f
Fri 12/08 11:00pm 11 15 mph 1010.4mb 47f
10:00pm 13 15 mph 1010.7mb 48f
9:00pm 11 16 mph 1009.5mb 48f
8:00pm 10 18 mph 1008.4mb 49f
7:00pm 11 16 mph 1009mb 52f
6:00pm 10 14 mph 1007mb 56f
5:00pm 2 6 mph 1006mb 60f
4:00pm 25 28 mph 1004.6mb 70f
3:00pm 18 21 mph 1005.6mb 70f
2:00pm 6 8 mph 1007.2mb 59f
1:00pm 9 11 mph 1008.6mb 57f
12:00pm 9 10 mph 1010.1mb 56f
10:00am 13 14 mph 1012.2mb 54f
9:00am 13 17 mph 1012.1mb 53f
8:00am 15 17 mph 1012.2mb 53f
7:00am 18 20 mph 1012.4mb 53f
6:00am 15 18 mph 1012.7mb 52f
5:00am 15 17 mph 1013mb 52f
4:00am 17 18 mph 1013.2mb 52f
3:00am 20 22 mph 1013.4mb 52f